sensor_id;sensor_type;location;lat;lon;timestamp;pressure;altitude;pressure_sealevel;temperature;humidity
53300;BME280;39187;48.476;8.310;2023-05-11T00:00:15;91068.50;;;8.09;100.00
53300;BME280;39187;48.476;8.310;2023-05-11T00:02:40;91076.91;;;8.03;100.00
53300;BME280;39187;48.476;8.310;2023-05-11T00:05:06;91069.22;;;8.13;100.00
53300;BME280;39187;48.476;8.310;2023-05-11T00:07:32;91078.03;;;8.06;100.00
53300;BME280;39187;48.476;8.310;2023-05-11T00:09:57;91073.34;;;8.14;100.00
53300;BME280;39187;48.476;8.310;2023-05-11T00:12:23;91075.59;;;8.15;100.00
53300;BME280;39187;48.476;8.310;2023-05-11T00:14:48;91075.19;;;7.93;100.00
53300;BME280;39187;48.476;8.310;2023-05-11T00:17:14;91082.56;;;8.05;100.00
53300;BME280;39187;48.476;8.310;2023-05-11T00:19:39;91071.13;;;8.12;100.00
53300;BME280;39187;48.476;8.310;2023-05-11T00:22:05;91075.03;;;8.04;100.00
53300;BME280;39187;48.476;8.310;2023-05-11T00:24:31;91074.47;;;8.16;100.00
53300;BME280;39187;48.476;8.310;2023-05-11T00:26:57;91075.25;;;8.13;100.00
53300;BME280;39187;48.476;8.310;2023-05-11T00:29:22;91071.81;;;8.16;100.00
53300;BME280;39187;48.476;8.310;2023-05-11T00:31:48;91070.66;;;8.17;100.00
53300;BME280;39187;48.476;8.310;2023-05-11T00:34:15;91063.78;;;8.20;100.00
53300;BME280;39187;48.476;8.310;2023-05-11T00:36:40;91061.91;;;8.20;100.00
53300;BME280;39187;48.476;8.310;2023-05-11T00:39:10;91060.34;;;8.23;100.00
53300;BME280;39187;48.476;8.310;2023-05-11T00:41:37;91063.78;;;8.20;100.00
53300;BME280;39187;48.476;8.310;2023-05-11T00:44:03;91059.97;;;8.24;100.00
53300;BME280;39187;48.476;8.310;2023-05-11T00:46:29;91064.91;;;8.22;100.00
53300;BME280;39187;48.476;8.310;2023-05-11T00:48:55;91059.22;;;8.24;100.00
53300;BME280;39187;48.476;8.310;2023-05-11T00:51:21;91059.22;;;8.24;100.00
53300;BME280;39187;48.476;8.310;2023-05-11T00:53:48;91055.06;;;8.23;100.00
53300;BME280;39187;48.476;8.310;2023-05-11T00:56:13;91057.13;;;8.12;100.00
53300;BME280;39187;48.476;8.310;2023-05-11T00:58:39;91050.66;;;8.13;100.00
53300;BME280;39187;48.476;8.310;2023-05-11T01:01:05;91051.72;;;8.19;100.00
53300;BME280;39187;48.476;8.310;2023-05-11T01:03:32;91053.81;;;8.04;100.00
53300;BME280;39187;48.476;8.310;2023-05-11T01:06:16;91052.91;;;8.14;100.00
53300;BME280;39187;48.476;8.310;2023-05-11T01:08:58;91049.38;;;7.97;100.00
53300;BME280;39187;48.476;8.310;2023-05-11T01:11:32;91043.25;;;8.00;100.00
53300;BME280;39187;48.476;8.310;2023-05-11T01:14:11;91049.25;;;8.04;100.00
53300;BME280;39187;48.476;8.310;2023-05-11T01:16:40;91049.16;;;8.12;100.00
53300;BME280;39187;48.476;8.310;2023-05-11T01:22:17;91053.75;;;8.07;100.00
53300;BME280;39187;48.476;8.310;2023-05-11T01:27:47;91040.47;;;8.11;100.00
53300;BME280;39187;48.476;8.310;2023-05-11T01:32:39;91044.28;;;8.06;100.00
53300;BME280;39187;48.476;8.310;2023-05-11T01:35:26;91046.22;;;8.06;100.00
53300;BME280;39187;48.476;8.310;2023-05-11T01:37:56;91044.25;;;8.10;100.00
53300;BME280;39187;48.476;8.310;2023-05-11T01:40:25;91039.31;;;8.12;100.00
53300;BME280;39187;48.476;8.310;2023-05-11T01:43:01;91043.91;;;8.08;100.00
53300;BME280;39187;48.476;8.310;2023-05-11T01:45:30;91041.22;;;8.12;100.00
53300;BME280;39187;48.476;8.310;2023-05-11T01:48:00;91040.47;;;8.11;100.00
53300;BME280;39187;48.476;8.310;2023-05-11T01:50:28;91045.75;;;8.11;100.00
53300;BME280;39187;48.476;8.310;2023-05-11T01:52:54;91042.75;;;8.09;100.00
53300;BME280;39187;48.476;8.310;2023-05-11T01:55:21;91040.78;;;8.13;100.00
53300;BME280;39187;48.476;8.310;2023-05-11T01:57:51;91046.09;;;8.13;100.00
53300;BME280;39187;48.476;8.310;2023-05-11T02:00:17;91046.91;;;8.10;100.00
53300;BME280;39187;48.476;8.310;2023-05-11T02:02:43;91039.31;;;8.12;100.00
53300;BME280;39187;48.476;8.310;2023-05-11T02:05:15;91045.69;;;8.15;100.00
53300;BME280;39187;48.476;8.310;2023-05-11T02:07:42;91049.09;;;8.15;100.00
53300;BME280;39187;48.476;8.310;2023-05-11T02:10:09;91048.75;;;8.13;100.00
53300;BME280;39187;48.476;8.310;2023-05-11T02:12:37;91043.88;;;8.12;100.00
53300;BME280;39187;48.476;8.310;2023-05-11T02:15:05;91049.16;;;8.12;100.00
53300;BME280;39187;48.476;8.310;2023-05-11T02:17:31;91052.16;;;8.14;100.00
53300;BME280;39187;48.476;8.310;2023-05-11T02:19:59;91046.94;;;8.06;100.00
53300;BME280;39187;48.476;8.310;2023-05-11T02:22:26;91048.44;;;8.07;100.00
53300;BME280;39187;48.476;8.310;2023-05-11T02:24:52;91047.66;;;8.11;100.00
53300;BME280;39187;48.476;8.310;2023-05-11T02:27:18;91043.03;;;8.15;100.00
53300;BME280;39187;48.476;8.310;2023-05-11T02:29:43;91044.56;;;8.16;100.00
53300;BME280;39187;48.476;8.310;2023-05-11T02:32:15;91045.75;;;8.11;100.00
53300;BME280;39187;48.476;8.310;2023-05-11T02:34:44;91046.84;;;8.14;100.00
53300;BME280;39187;48.476;8.310;2023-05-11T02:37:14;91040.78;;;8.13;100.00
53300;BME280;39187;48.476;8.310;2023-05-11T02:39:43;91049.91;;;8.12;100.00
53300;BME280;39187;48.476;8.310;2023-05-11T02:42:13;91043.03;;;8.15;100.00
53300;BME280;39187;48.476;8.310;2023-05-11T02:45:04;91038.50;;;8.15;100.00
53300;BME280;39187;48.476;8.310;2023-05-11T02:47:37;91038.97;;;8.10;100.00
53300;BME280;39187;48.476;8.310;2023-05-11T02:50:04;91034.50;;;8.03;100.00
53300;BME280;39187;48.476;8.310;2023-05-11T02:52:33;91035.16;;;7.84;100.00
53300;BME280;39187;48.476;8.310;2023-05-11T02:55:01;91031.66;;;7.91;100.00
53300;BME280;39187;48.476;8.310;2023-05-11T02:57:27;91023.56;;;7.75;100.00
53300;BME280;39187;48.476;8.310;2023-05-11T02:59:53;91025.81;;;7.76;100.00
53300;BME280;39187;48.476;8.310;2023-05-11T03:02:19;91031.28;;;7.62;100.00
53300;BME280;39187;48.476;8.310;2023-05-11T03:04:44;91028.16;;;7.71;100.00
53300;BME280;39187;48.476;8.310;2023-05-11T03:07:10;91023.47;;;7.82;100.00
53300;BME280;39187;48.476;8.310;2023-05-11T03:09:35;91036.28;;;7.56;100.00
53300;BME280;39187;48.476;8.310;2023-05-11T03:12:02;91031.47;;;7.78;100.00
53300;BME280;39187;48.476;8.310;2023-05-11T03:14:31;91020.97;;;7.71;100.00
53300;BME280;39187;48.476;8.310;2023-05-11T03:16:59;91015.81;;;7.87;100.00
53300;BME280;39187;48.476;8.310;2023-05-11T03:19:26;91027.41;;;7.97;100.00
53300;BME280;39187;48.476;8.310;2023-05-11T03:21:53;91025.50;;;7.97;100.00
53300;BME280;39187;48.476;8.310;2023-05-11T03:24:19;91022.88;;;7.97;100.00
53300;BME280;39187;48.476;8.310;2023-05-11T03:26:46;91021.09;;;7.87;100.00
53300;BME280;39187;48.476;8.310;2023-05-11T03:29:14;91018.50;;;7.84;100.00
53300;BME280;39187;48.476;8.310;2023-05-11T03:31:41;91017.22;;;7.95;100.00
53300;BME280;39187;48.476;8.310;2023-05-11T03:34:06;91014.72;;;7.85;100.00
53300;BME280;39187;48.476;8.310;2023-05-11T03:36:32;91014.94;;;7.94;100.00
53300;BME280;39187;48.476;8.310;2023-05-11T03:38:58;91007.31;;;7.99;100.00
53300;BME280;39187;48.476;8.310;2023-05-11T03:41:26;91010.72;;;8.00;100.00
53300;BME280;39187;48.476;8.310;2023-05-11T03:43:54;91014.47;;;8.02;100.00
53300;BME280;39187;48.476;8.310;2023-05-11T03:46:21;91011.44;;;8.00;100.00
53300;BME280;39187;48.476;8.310;2023-05-11T03:48:48;91017.56;;;7.71;100.00
53300;BME280;39187;48.476;8.310;2023-05-11T03:51:15;91009.22;;;7.72;100.00
53300;BME280;39187;48.476;8.310;2023-05-11T03:53:40;91014.31;;;7.86;100.00
53300;BME280;39187;48.476;8.310;2023-05-11T03:56:07;91010.88;;;7.89;100.00
53300;BME280;39187;48.476;8.310;2023-05-11T03:58:32;91017.72;;;7.87;100.00
53300;BME280;39187;48.476;8.310;2023-05-11T04:01:02;91002.91;;;7.89;100.00
53300;BME280;39187;48.476;8.310;2023-05-11T04:03:28;91003.81;;;7.79;100.00
53300;BME280;39187;48.476;8.310;2023-05-11T04:05:53;91005.53;;;7.66;100.00
53300;BME280;39187;48.476;8.310;2023-05-11T04:08:19;91003.00;;;7.82;100.00
53300;BME280;39187;48.476;8.310;2023-05-11T04:10:45;91013.22;;;7.84;100.00
53300;BME280;39187;48.476;8.310;2023-05-11T04:13:10;91002.16;;;7.89;100.00
53300;BME280;39187;48.476;8.310;2023-05-11T04:15:36;91007.25;;;7.76;100.00
53300;BME280;39187;48.476;8.310;2023-05-11T04:18:01;91015.22;;;7.76;100.00
53300;BME280;39187;48.476;8.310;2023-05-11T04:20:27;91012.00;;;7.88;100.00
53300;BME280;39187;48.476;8.310;2023-05-11T04:22:52;91001.50;;;7.81;100.00
53300;BME280;39187;48.476;8.310;2023-05-11T04:25:18;91008.59;;;7.88;100.00
53300;BME280;39187;48.476;8.310;2023-05-11T04:27:44;91003.44;;;7.81;100.00
53300;BME280;39187;48.476;8.310;2023-05-11T04:30:10;91007.06;;;7.90;100.00
53300;BME280;39187;48.476;8.310;2023-05-11T04:32:36;91008.50;;;7.95;100.00
53300;BME280;39187;48.476;8.310;2023-05-11T04:35:01;91012.25;;;7.97;100.00
53300;BME280;39187;48.476;8.310;2023-05-11T04:37:27;91007.44;;;7.92;100.00
53300;BME280;39187;48.476;8.310;2023-05-11T04:39:52;91014.56;;;7.95;100.00
53300;BME280;39187;48.476;8.310;2023-05-11T04:42:18;91009.56;;;8.01;100.00
53300;BME280;39187;48.476;8.310;2023-05-11T04:44:43;91007.72;;;7.98;100.00
53300;BME280;39187;48.476;8.310;2023-05-11T04:47:09;91012.25;;;7.97;100.00
53300;BME280;39187;48.476;8.310;2023-05-11T04:49:34;91019.41;;;8.00;100.00
53300;BME280;39187;48.476;8.310;2023-05-11T04:52:00;91020.22;;;7.97;100.00
53300;BME280;39187;48.476;8.310;2023-05-11T04:54:25;91012.94;;;8.01;100.00
53300;BME280;39187;48.476;8.310;2023-05-11T04:56:51;91017.09;;;8.02;100.00
53300;BME280;39187;48.476;8.310;2023-05-11T04:59:17;91017.06;;;8.06;100.00
53300;BME280;39187;48.476;8.310;2023-05-11T05:01:42;91025.75;;;8.06;100.00
53300;BME280;39187;48.476;8.310;2023-05-11T05:04:08;91020.97;;;7.98;100.00
53300;BME280;39187;48.476;8.310;2023-05-11T05:06:33;91018.81;;;7.89;100.00
53300;BME280;39187;48.476;8.310;2023-05-11T05:08:59;91021.25;;;8.03;100.00
53300;BME280;39187;48.476;8.310;2023-05-11T05:11:25;91020.91;;;7.75;100.00
53300;BME280;39187;48.476;8.310;2023-05-11T05:13:50;91023.03;;;7.87;100.00
53300;BME280;39187;48.476;8.310;2023-05-11T05:16:15;91029.56;;;7.79;100.00
53300;BME280;39187;48.476;8.310;2023-05-11T05:18:41;91021.84;;;7.88;100.00
53300;BME280;39187;48.476;8.310;2023-05-11T05:21:07;91016.88;;;7.93;100.00
53300;BME280;39187;48.476;8.310;2023-05-11T05:23:32;91024.56;;;7.84;100.00
53300;BME280;39187;48.476;8.310;2023-05-11T05:25:58;91021.22;;;7.80;100.00
53300;BME280;39187;48.476;8.310;2023-05-11T05:28:23;91026.75;;;7.62;100.00
53300;BME280;39187;48.476;8.310;2023-05-11T05:30:49;91031.72;;;7.60;100.00
53300;BME280;39187;48.476;8.310;2023-05-11T05:33:14;91035.91;;;7.58;100.00
53300;BME280;39187;48.476;8.310;2023-05-11T05:35:40;91024.28;;;7.79;100.00
53300;BME280;39187;48.476;8.310;2023-05-11T05:38:07;91021.91;;;7.84;100.00
53300;BME280;39187;48.476;8.310;2023-05-11T05:40:33;91026.16;;;7.78;100.00
53300;BME280;39187;48.476;8.310;2023-05-11T05:43:02;91022.06;;;7.74;100.00
53300;BME280;39187;48.476;8.310;2023-05-11T05:45:27;91026.72;;;7.93;100.00
53300;BME280;39187;48.476;8.310;2023-05-11T05:47:53;91031.94;;;8.00;100.00
53300;BME280;39187;48.476;8.310;2023-05-11T05:50:18;91030.25;;;7.83;100.00
53300;BME280;39187;48.476;8.310;2023-05-11T05:52:44;91030.56;;;7.88;100.00
53300;BME280;39187;48.476;8.310;2023-05-11T05:55:09;91028.91;;;7.98;100.00
53300;BME280;39187;48.476;8.310;2023-05-11T05:57:35;91036.81;;;8.01;100.00
53300;BME280;39187;48.476;8.310;2023-05-11T06:00:00;91027.34;;;8.00;100.00
53300;BME280;39187;48.476;8.310;2023-05-11T06:02:26;91042.00;;;8.09;100.00
53300;BME280;39187;48.476;8.310;2023-05-11T06:04:51;91036.34;;;8.06;100.00
53300;BME280;39187;48.476;8.310;2023-05-11T06:07:17;91031.88;;;8.03;100.00
53300;BME280;39187;48.476;8.310;2023-05-11T06:09:42;91040.06;;;8.13;100.00
53300;BME280;39187;48.476;8.310;2023-05-11T06:12:08;91040.06;;;8.13;100.00
53300;BME280;39187;48.476;8.310;2023-05-11T06:14:34;91042.34;;;8.11;100.00
53300;BME280;39187;48.476;8.310;2023-05-11T06:17:00;91035.44;;;8.17;100.00
53300;BME280;39187;48.476;8.310;2023-05-11T06:19:26;91040.41;;;7.88;100.00
53300;BME280;39187;48.476;8.310;2023-05-11T06:21:51;91039.31;;;8.12;100.00
53300;BME280;39187;48.476;8.310;2023-05-11T06:24:17;91038.84;;;8.17;100.00
53300;BME280;39187;48.476;8.310;2023-05-11T06:26:42;91036.50;;;8.23;100.00
53300;BME280;39187;48.476;8.310;2023-05-11T06:29:08;91037.19;;;8.27;100.00
53300;BME280;39187;48.476;8.310;2023-05-11T06:31:33;91041.69;;;8.30;100.00
53300;BME280;39187;48.476;8.310;2023-05-11T06:33:59;91036.34;;;8.33;100.00
53300;BME280;39187;48.476;8.310;2023-05-11T06:36:24;91045.06;;;8.34;100.00
53300;BME280;39187;48.476;8.310;2023-05-11T06:38:50;91040.09;;;8.36;100.00
53300;BME280;39187;48.476;8.310;2023-05-11T06:41:15;91044.59;;;8.39;100.00
53300;BME280;39187;48.476;8.310;2023-05-11T06:43:41;91036.78;;;8.28;100.00
53300;BME280;39187;48.476;8.310;2023-05-11T06:46:07;91038.66;;;8.31;100.00
53300;BME280;39187;48.476;8.310;2023-05-11T06:48:32;91040.59;;;8.27;100.00
53300;BME280;39187;48.476;8.310;2023-05-11T06:50:58;91041.69;;;8.30;100.00
53300;BME280;39187;48.476;8.310;2023-05-11T06:53:23;91038.88;;;8.40;100.00
53300;BME280;39187;48.476;8.310;2023-05-11T06:55:49;91034.94;;;8.25;100.00
53300;BME280;39187;48.476;8.310;2023-05-11T06:58:14;91036.59;;;8.42;100.00
53300;BME280;39187;48.476;8.310;2023-05-11T07:00:41;91037.47;;;8.36;100.00
53300;BME280;39187;48.476;8.310;2023-05-11T07:03:06;91033.88;;;8.46;100.00
53300;BME280;39187;48.476;8.310;2023-05-11T07:05:32;91039.66;;;8.41;100.00
53300;BME280;39187;48.476;8.310;2023-05-11T07:07:58;91038.28;;;8.56;100.00
53300;BME280;39187;48.476;8.310;2023-05-11T07:10:23;91035.16;;;8.61;100.00
53300;BME280;39187;48.476;8.310;2023-05-11T07:12:49;91048.69;;;8.67;100.00
53300;BME280;39187;48.476;8.310;2023-05-11T07:15:14;91035.53;;;8.60;100.00
53300;BME280;39187;48.476;8.310;2023-05-11T07:17:40;91046.41;;;8.69;100.00
53300;BME280;39187;48.476;8.310;2023-05-11T07:20:06;91051.31;;;8.70;100.00
53300;BME280;39187;48.476;8.310;2023-05-11T07:22:32;91045.19;;;8.73;100.00
53300;BME280;39187;48.476;8.310;2023-05-11T07:24:59;91057.47;;;8.40;100.00
53300;BME280;39187;48.476;8.310;2023-05-11T07:27:24;91050.66;;;8.63;100.00
53300;BME280;39187;48.476;8.310;2023-05-11T07:29:50;91047.53;;;8.68;100.00
53300;BME280;39187;48.476;8.310;2023-05-11T07:32:16;91051.97;;;8.74;100.00
53300;BME280;39187;48.476;8.310;2023-05-11T07:34:43;91056.06;;;8.79;100.00
53300;BME280;39187;48.476;8.310;2023-05-11T07:37:08;91054.41;;;8.65;100.00
53300;BME280;39187;48.476;8.310;2023-05-11T07:39:34;91055.03;;;8.73;100.00
53300;BME280;39187;48.476;8.310;2023-05-11T07:41:59;91047.75;;;8.77;100.00
53300;BME280;39187;48.476;8.310;2023-05-11T07:44:25;91046.16;;;8.83;100.00
53300;BME280;39187;48.476;8.310;2023-05-11T07:46:51;91058.03;;;8.75;100.00
53300;BME280;39187;48.476;8.310;2023-05-11T07:49:16;91057.50;;;8.83;100.00
53300;BME280;39187;48.476;8.310;2023-05-11T07:51:42;91052.78;;;8.95;100.00
53300;BME280;39187;48.476;8.310;2023-05-11T07:54:07;91050.78;;;8.99;100.00
53300;BME280;39187;48.476;8.310;2023-05-11T07:56:33;91054.88;;;9.03;100.00
53300;BME280;39187;48.476;8.310;2023-05-11T07:58:58;91054.31;;;8.92;100.00
53300;BME280;39187;48.476;8.310;2023-05-11T08:01:24;91059.88;;;9.01;100.00
53300;BME280;39187;48.476;8.310;2023-05-11T08:03:49;91054.47;;;9.05;100.00
53300;BME280;39187;48.476;8.310;2023-05-11T08:06:15;91053.81;;;9.01;100.00
53300;BME280;39187;48.476;8.310;2023-05-11T08:08:40;91055.56;;;8.88;100.00
53300;BME280;39187;48.476;8.310;2023-05-11T08:11:06;91054.28;;;9.15;100.00
53300;BME280;39187;48.476;8.310;2023-05-11T08:13:31;91056.28;;;9.31;100.00
53300;BME280;39187;48.476;8.310;2023-05-11T08:15:57;91051.44;;;9.26;100.00
53300;BME280;39187;48.476;8.310;2023-05-11T08:18:22;91052.78;;;8.95;100.00
53300;BME280;39187;48.476;8.310;2023-05-11T08:20:48;91044.34;;;9.19;100.00
53300;BME280;39187;48.476;8.310;2023-05-11T08:23:13;91051.16;;;9.20;100.00
53300;BME280;39187;48.476;8.310;2023-05-11T08:25:49;91046.63;;;9.41;100.00
53300;BME280;39187;48.476;8.310;2023-05-11T08:28:16;91055.13;;;9.52;100.00
53300;BME280;39187;48.476;8.310;2023-05-11T08:30:42;91051.03;;;9.47;100.00
53300;BME280;39187;48.476;8.310;2023-05-11T08:33:07;91052.72;;;9.57;100.00
53300;BME280;39187;48.476;8.310;2023-05-11T08:35:33;91052.09;;;9.70;100.00
53300;BME280;39187;48.476;8.310;2023-05-11T08:37:58;91057.06;;;9.68;100.00
53300;BME280;39187;48.476;8.310;2023-05-11T08:40:25;91058.06;;;9.74;100.00
53300;BME280;39187;48.476;8.310;2023-05-11T08:42:54;91056.78;;;9.62;100.00
53300;BME280;39187;48.476;8.310;2023-05-11T08:45:21;91062.38;;;9.68;100.00
53300;BME280;39187;48.476;8.310;2023-05-11T08:47:47;91058.16;;;9.70;100.00
53300;BME280;39187;48.476;8.310;2023-05-11T08:50:13;91055.72;;;9.79;100.00
53300;BME280;39187;48.476;8.310;2023-05-11T08:52:39;91060.41;;;9.72;100.00
53300;BME280;39187;48.476;8.310;2023-05-11T08:55:06;91055.16;;;9.68;100.00
53300;BME280;39187;48.476;8.310;2023-05-11T08:57:33;91063.53;;;9.66;100.00
53300;BME280;39187;48.476;8.310;2023-05-11T09:00:02;91065.88;;;9.25;100.00
53300;BME280;39187;48.476;8.310;2023-05-11T09:02:32;91062.13;;;9.62;100.00
53300;BME280;39187;48.476;8.310;2023-05-11T09:04:58;91063.50;;;9.86;100.00
53300;BME280;39187;48.476;8.310;2023-05-11T09:07:27;91055.59;;;10.02;100.00
53300;BME280;39187;48.476;8.310;2023-05-11T09:09:53;91054.00;;;10.05;100.00
53300;BME280;39187;48.476;8.310;2023-05-11T09:12:19;91061.94;;;10.25;100.00
53300;BME280;39187;48.476;8.310;2023-05-11T09:14:45;91047.94;;;10.04;100.00
53300;BME280;39187;48.476;8.310;2023-05-11T09:17:11;91056.63;;;10.25;100.00
53300;BME280;39187;48.476;8.310;2023-05-11T09:19:55;91053.91;;;10.28;100.00
53300;BME280;39187;48.476;8.310;2023-05-11T09:22:22;91052.41;;;10.60;100.00
53300;BME280;39187;48.476;8.310;2023-05-11T09:24:47;91046.69;;;10.61;100.00
53300;BME280;39187;48.476;8.310;2023-05-11T09:27:13;91052.91;;;10.55;100.00
53300;BME280;39187;48.476;8.310;2023-05-11T09:29:39;91056.72;;;10.86;100.00
53300;BME280;39187;48.476;8.310;2023-05-11T09:32:05;91056.22;;;10.91;100.00
53300;BME280;39187;48.476;8.310;2023-05-11T09:34:30;91062.53;;;10.97;100.00
53300;BME280;39187;48.476;8.310;2023-05-11T09:36:56;91062.16;;;11.11;100.00
53300;BME280;39187;48.476;8.310;2023-05-11T09:39:32;91054.19;;;10.95;100.00
53300;BME280;39187;48.476;8.310;2023-05-11T09:44:38;91055.47;;;10.91;100.00
53300;BME280;39187;48.476;8.310;2023-05-11T09:47:19;91057.78;;;10.89;100.00
53300;BME280;39187;48.476;8.310;2023-05-11T09:49:46;91050.25;;;10.55;100.00
53300;BME280;39187;48.476;8.310;2023-05-11T09:52:15;91046.91;;;10.67;100.00
53300;BME280;39187;48.476;8.310;2023-05-11T09:54:42;91042.84;;;10.78;100.00
53300;BME280;39187;48.476;8.310;2023-05-11T09:57:28;91040.84;;;10.34;100.00
53300;BME280;39187;48.476;8.310;2023-05-11T09:59:54;91042.19;;;10.74;100.00
53300;BME280;39187;48.476;8.310;2023-05-11T10:02:28;91043.50;;;10.50;100.00
53300;BME280;39187;48.476;8.310;2023-05-11T10:04:56;91042.56;;;10.89;100.00
53300;BME280;39187;48.476;8.310;2023-05-11T10:07:23;91045.53;;;11.07;100.00
53300;BME280;39187;48.476;8.310;2023-05-11T10:09:51;91042.00;;;10.81;98.18
53300;BME280;39187;48.476;8.310;2023-05-11T10:12:20;91047.16;;;10.72;100.00
53300;BME280;39187;48.476;8.310;2023-05-11T10:14:46;91044.66;;;10.33;100.00
53300;BME280;39187;48.476;8.310;2023-05-11T10:17:13;91039.06;;;10.76;100.00
53300;BME280;39187;48.476;8.310;2023-05-11T10:19:40;91042.59;;;11.18;100.00
53300;BME280;39187;48.476;8.310;2023-05-11T10:22:06;91038.03;;;11.18;100.00
53300;BME280;39187;48.476;8.310;2023-05-11T10:24:32;91045.72;;;11.29;100.00
53300;BME280;39187;48.476;8.310;2023-05-11T10:26:59;91048.50;;;11.25;100.00
53300;BME280;39187;48.476;8.310;2023-05-11T10:29:26;91037.38;;;11.56;99.32
53300;BME280;39187;48.476;8.310;2023-05-11T10:31:52;91040.22;;;11.36;100.00
53300;BME280;39187;48.476;8.310;2023-05-11T10:34:19;91044.72;;;11.39;98.21
53300;BME280;39187;48.476;8.310;2023-05-11T10:36:47;91044.31;;;11.53;96.98
53300;BME280;39187;48.476;8.310;2023-05-11T10:39:14;91038.69;;;11.64;96.99
53300;BME280;39187;48.476;8.310;2023-05-11T11:01:39;91025.44;;;12.02;91.82
53300;BME280;39187;48.476;8.310;2023-05-11T11:04:07;91028.19;;;12.49;88.77
53300;BME280;39187;48.476;8.310;2023-05-11T11:06:35;91027.69;;;12.29;91.54
53300;BME280;39187;48.476;8.310;2023-05-11T11:09:06;91017.19;;;12.60;87.89
53300;BME280;39187;48.476;8.310;2023-05-11T11:11:40;91013.47;;;12.32;84.00
53300;BME280;39187;48.476;8.310;2023-05-11T11:14:08;91008.84;;;12.58;83.74
53300;BME280;39187;48.476;8.310;2023-05-11T11:16:37;91013.44;;;12.70;83.33
53300;BME280;39187;48.476;8.310;2023-05-11T11:21:54;91010.91;;;12.88;81.25
53300;BME280;39187;48.476;8.310;2023-05-11T11:27:01;91012.09;;;12.40;84.03
53300;BME280;39187;48.476;8.310;2023-05-11T11:29:28;91013.47;;;12.19;80.66
53300;BME280;39187;48.476;8.310;2023-05-11T11:31:54;91009.16;;;11.58;79.79
53300;BME280;39187;48.476;8.310;2023-05-11T11:39:21;91004.81;;;12.53;79.13
53300;BME280;39187;48.476;8.310;2023-05-11T11:44:29;91000.56;;;11.92;78.13
53300;BME280;39187;48.476;8.310;2023-05-11T11:47:24;90991.28;;;12.35;76.93
53300;BME280;39187;48.476;8.310;2023-05-11T11:49:54;90991.06;;;12.04;78.43
53300;BME280;39187;48.476;8.310;2023-05-11T11:54:51;90993.22;;;12.09;81.41
53300;BME280;39187;48.476;8.310;2023-05-11T12:00:00;90999.69;;;11.70;74.69
53300;BME280;39187;48.476;8.310;2023-05-11T12:02:26;90993.00;;;12.03;78.02
53300;BME280;39187;48.476;8.310;2023-05-11T12:04:57;90986.69;;;12.10;75.97
53300;BME280;39187;48.476;8.310;2023-05-11T12:07:25;90984.81;;;12.70;75.68
53300;BME280;39187;48.476;8.310;2023-05-11T12:09:51;90991.59;;;12.37;75.63
53300;BME280;39187;48.476;8.310;2023-05-11T12:12:18;90993.44;;;12.02;77.71
53300;BME280;39187;48.476;8.310;2023-05-11T12:14:45;90988.41;;;12.04;77.36
53300;BME280;39187;48.476;8.310;2023-05-11T12:17:15;90992.56;;;11.80;83.96
53300;BME280;39187;48.476;8.310;2023-05-11T12:19:47;90988.13;;;11.60;88.54
53300;BME280;39187;48.476;8.310;2023-05-11T12:22:12;90987.84;;;11.71;88.16
53300;BME280;39187;48.476;8.310;2023-05-11T12:24:40;90983.44;;;11.10;83.63
53300;BME280;39187;48.476;8.310;2023-05-11T12:27:05;90985.69;;;11.12;83.63
53300;BME280;39187;48.476;8.310;2023-05-11T12:29:31;90984.50;;;11.67;80.97
53300;BME280;39187;48.476;8.310;2023-05-11T12:31:57;90976.69;;;12.01;82.43
53300;BME280;39187;48.476;8.310;2023-05-11T12:34:23;90982.56;;;11.42;86.50
53300;BME280;39187;48.476;8.310;2023-05-11T12:36:51;90984.22;;;11.23;86.25
53300;BME280;39187;48.476;8.310;2023-05-11T12:39:24;90988.78;;;11.52;85.99
53300;BME280;39187;48.476;8.310;2023-05-11T12:41:52;90982.94;;;11.28;82.82
53300;BME280;39187;48.476;8.310;2023-05-11T12:44:20;90984.38;;;11.33;82.31
53300;BME280;39187;48.476;8.310;2023-05-11T12:46:47;90980.59;;;11.17;81.30
53300;BME280;39187;48.476;8.310;2023-05-11T12:49:17;90983.75;;;11.54;81.54
53300;BME280;39187;48.476;8.310;2023-05-11T12:51:51;90982.81;;;11.19;85.75
53300;BME280;39187;48.476;8.310;2023-05-11T12:54:26;90986.94;;;11.07;83.69
53300;BME280;39187;48.476;8.310;2023-05-11T12:56:51;90984.31;;;10.62;87.25
53300;BME280;39187;48.476;8.310;2023-05-11T12:59:37;90988.44;;;10.79;83.40
53300;BME280;39187;48.476;8.310;2023-05-11T13:04:37;90984.38;;;10.59;86.09
53300;BME280;39187;48.476;8.310;2023-05-11T13:07:03;90973.22;;;10.80;86.01
53300;BME280;39187;48.476;8.310;2023-05-11T13:09:29;90980.56;;;10.60;85.83
53300;BME280;39187;48.476;8.310;2023-05-11T13:12:14;90971.88;;;10.72;86.50
53300;BME280;39187;48.476;8.310;2023-05-11T13:14:43;90964.19;;;10.13;90.58
53300;BME280;39187;48.476;8.310;2023-05-11T13:17:09;90965.91;;;9.87;93.38
53300;BME280;39187;48.476;8.310;2023-05-11T13:19:35;90969.34;;;10.20;94.49
53300;BME280;39187;48.476;8.310;2023-05-11T13:22:02;90968.34;;;10.14;94.21
53300;BME280;39187;48.476;8.310;2023-05-11T13:24:28;90964.84;;;10.00;92.41
53300;BME280;39187;48.476;8.310;2023-05-11T13:26:54;90979.88;;;9.91;88.49
53300;BME280;39187;48.476;8.310;2023-05-11T13:29:20;90966.81;;;9.80;89.28
53300;BME280;39187;48.476;8.310;2023-05-11T13:31:51;90967.25;;;9.79;91.58
53300;BME280;39187;48.476;8.310;2023-05-11T13:34:18;90969.25;;;10.07;89.36
53300;BME280;39187;48.476;8.310;2023-05-11T13:36:44;90960.38;;;9.97;89.75
53300;BME280;39187;48.476;8.310;2023-05-11T13:39:10;90965.75;;;9.94;87.55
53300;BME280;39187;48.476;8.310;2023-05-11T13:41:35;90955.81;;;9.98;91.21
53300;BME280;39187;48.476;8.310;2023-05-11T13:44:01;90968.09;;;10.24;88.96
53300;BME280;39187;48.476;8.310;2023-05-11T13:46:27;90969.59;;;10.25;87.36
53300;BME280;39187;48.476;8.310;2023-05-11T13:48:53;90969.81;;;10.63;87.16
53300;BME280;39187;48.476;8.310;2023-05-11T13:51:22;90958.78;;;10.94;84.84